createdAt,value
2023-04-27T00:00:36.265Z,95783.72
2023-04-27T00:03:21.799Z,95777.50
2023-04-27T00:06:09.119Z,95774.22
2023-04-27T00:08:54.434Z,95777.69
2023-04-27T00:12:11.193Z,95775.88
2023-04-27T00:14:56.516Z,95781.44
2023-04-27T00:17:43.508Z,95777.81
2023-04-27T00:20:28.563Z,95780.59
2023-04-27T00:23:13.951Z,95781.44
2023-04-27T00:25:59.163Z,95776.34
2023-04-27T00:28:44.484Z,95772.09
2023-04-27T00:31:29.854Z,95778.16
2023-04-27T00:34:15.172Z,95779.13
2023-04-27T00:37:00.454Z,95778.34
2023-04-27T00:39:45.765Z,95775.72
2023-04-27T00:42:31.168Z,95778.63
2023-04-27T00:45:16.633Z,95774.56
2023-04-27T00:48:01.814Z,95783.88
2023-04-27T00:50:47.200Z,95780.25
2023-04-27T00:53:33.166Z,95783.38
2023-04-27T00:56:18.607Z,95777.47
2023-04-27T00:59:03.992Z,95783.66
2023-04-27T01:01:50.051Z,95779.41
2023-04-27T01:04:36.976Z,95787.53
2023-04-27T01:07:26.874Z,95777.09
2023-04-27T01:10:12.000Z,95779.38
2023-04-27T01:12:57.681Z,95780.38
2023-04-27T01:15:42.795Z,95781.97
2023-04-27T01:18:27.976Z,95780.19
2023-04-27T01:21:13.255Z,95786.84
2023-04-27T01:23:58.538Z,95783.59
2023-04-27T01:26:43.763Z,95789.13
2023-04-27T01:29:29.411Z,95788.47
2023-04-27T01:32:14.527Z,95779.97
2023-04-27T01:34:59.646Z,95784.84
2023-04-27T01:37:44.907Z,95795.63
2023-04-27T01:40:30.592Z,95790.72
2023-04-27T01:43:16.123Z,95790.06
2023-04-27T01:46:13.134Z,95790.53
2023-04-27T01:48:58.707Z,95796.59
2023-04-27T01:51:44.072Z,95793.97
2023-04-27T01:54:29.348Z,95790.69
2023-04-27T01:57:14.796Z,95797.84
2023-04-27T02:00:00.274Z,95800.63
2023-04-27T02:02:45.998Z,95801.91
2023-04-27T02:05:31.506Z,95804.34
2023-04-27T02:08:16.869Z,95805.34
2023-04-27T02:11:02.205Z,95806.97
2023-04-27T02:13:48.869Z,95806.28
2023-04-27T02:16:33.982Z,95806.28
2023-04-27T02:19:19.348Z,95803.75
2023-04-27T02:22:04.551Z,95810.25
2023-04-27T02:24:49.831Z,95803.44
2023-04-27T02:27:40.871Z,95816.50
2023-04-27T02:30:26.311Z,95810.31
2023-04-27T02:33:12.305Z,95815.84
2023-04-27T02:35:57.498Z,95817.81
2023-04-27T02:38:42.608Z,95816.63
2023-04-27T02:41:31.997Z,95813.88
2023-04-27T02:44:17.171Z,95809.63
2023-04-27T02:47:02.703Z,95811.84
2023-04-27T02:49:47.886Z,95812.19
2023-04-27T02:52:33.111Z,95813.06
2023-04-27T02:55:18.359Z,95811.75
2023-04-27T02:58:03.970Z,95813.91
2023-04-27T03:00:54.396Z,95814.41
2023-04-27T03:03:39.519Z,95821.09
2023-04-27T03:06:24.584Z,95821.41
2023-04-27T03:09:16.115Z,95822.22
2023-04-27T03:12:02.651Z,95818.63
2023-04-27T03:14:47.865Z,95825.84
2023-04-27T03:17:32.871Z,95826.44
2023-04-27T03:20:18.114Z,95832.28
2023-04-27T03:23:03.474Z,95834.53
2023-04-27T03:25:49.325Z,95833.41
2023-04-27T03:28:35.264Z,95833.03
2023-04-27T03:31:20.512Z,95830.75
2023-04-27T03:34:05.852Z,95829.75
2023-04-27T03:36:51.232Z,95835.66
2023-04-27T03:39:36.450Z,95841.38
2023-04-27T03:42:22.265Z,95842.22
2023-04-27T03:45:08.244Z,95842.81
2023-04-27T03:47:53.816Z,95855.50
2023-04-27T03:50:38.992Z,95841.25
2023-04-27T03:53:24.294Z,95849.25
2023-04-27T03:56:09.665Z,95853.94
2023-04-27T03:58:55.002Z,95852.16
2023-04-27T04:01:41.356Z,95853.00
2023-04-27T04:04:26.577Z,95867.66
2023-04-27T04:07:12.050Z,95867.66
2023-04-27T04:09:57.019Z,95870.13
2023-04-27T04:12:42.256Z,95875.31
2023-04-27T04:15:27.860Z,95869.16
2023-04-27T04:18:13.119Z,95875.28
2023-04-27T04:20:58.467Z,95876.25
2023-04-27T04:23:43.815Z,95876.78
2023-04-27T04:26:29.078Z,95874.31
2023-04-27T04:29:14.660Z,95879.75
2023-04-27T04:32:00.249Z,95875.84
2023-04-27T04:34:51.826Z,95891.50
2023-04-27T04:37:37.296Z,95893.53
2023-04-27T04:40:22.610Z,95893.69
2023-04-27T04:43:08.140Z,95891.59
2023-04-27T04:45:53.368Z,95898.59
2023-04-27T04:48:38.856Z,95899.63
2023-04-27T04:51:24.053Z,95905.34
2023-04-27T04:54:09.936Z,95907.97
2023-04-27T04:56:55.285Z,95914.34
2023-04-27T04:59:41.200Z,95912.91
2023-04-27T05:02:26.532Z,95910.50
2023-04-27T05:05:11.862Z,95917.31
2023-04-27T05:07:57.073Z,95913.22
2023-04-27T05:10:42.467Z,95906.88
2023-04-27T05:13:28.119Z,95906.59
2023-04-27T05:16:13.418Z,95904.13
2023-04-27T05:18:58.877Z,95909.03
2023-04-27T05:21:47.471Z,95917.06
2023-04-27T05:24:33.417Z,95914.63
2023-04-27T05:27:18.592Z,95910.66
2023-04-27T05:30:04.094Z,95911.69
2023-04-27T05:32:49.191Z,95917.91
2023-04-27T05:35:34.810Z,95924.44
2023-04-27T05:38:20.080Z,95918.53
2023-04-27T05:41:05.225Z,95928.09
2023-04-27T05:43:51.405Z,95926.47
2023-04-27T05:46:38.700Z,95934.97
2023-04-27T05:49:24.037Z,95924.09
2023-04-27T05:52:08.983Z,95936.91
2023-04-27T05:54:54.235Z,95942.16
2023-04-27T05:57:39.747Z,95931.56
2023-04-27T06:00:25.955Z,95929.28
2023-04-27T06:03:11.328Z,95932.56
2023-04-27T06:05:59.123Z,95923.94
2023-04-27T06:08:44.685Z,95930.69
2023-04-27T06:11:29.908Z,95931.06
2023-04-27T06:14:15.169Z,95920.97
2023-04-27T06:17:00.398Z,95933.94
2023-04-27T06:19:46.090Z,95928.75
2023-04-27T06:22:31.323Z,95935.81
2023-04-27T06:25:16.656Z,95926.16
2023-04-27T06:28:01.999Z,95933.72
2023-04-27T06:30:47.339Z,95935.34
2023-04-27T06:33:32.966Z,95937.59
2023-04-27T06:36:18.188Z,95945.63
2023-04-27T06:39:03.534Z,95938.56
2023-04-27T06:41:48.901Z,95933.56
2023-04-27T06:44:34.234Z,95938.91
2023-04-27T06:47:19.682Z,95928.97
2023-04-27T06:50:05.440Z,95938.69
2023-04-27T06:52:50.686Z,95940.53
2023-04-27T06:55:36.145Z,95925.66
2023-04-27T06:58:22.247Z,95936.63
2023-04-27T07:01:07.693Z,95936.72
2023-04-27T07:03:53.085Z,95937.84
2023-04-27T07:06:38.322Z,95947.16
2023-04-27T07:09:27.583Z,95940.03
2023-04-27T07:12:12.983Z,95953.81
2023-04-27T07:14:58.216Z,95935.19
2023-04-27T07:17:43.656Z,95953.25
2023-04-27T07:20:28.729Z,95943.47
2023-04-27T07:23:14.007Z,95946.53
2023-04-27T07:25:59.352Z,95957.06
2023-04-27T07:28:44.827Z,95952.91
2023-04-27T07:31:30.185Z,95952.38
2023-04-27T07:34:15.511Z,95956.63
2023-04-27T07:37:01.716Z,95956.91
2023-04-27T07:39:46.810Z,95960.84
2023-04-27T07:42:31.805Z,95953.56
2023-04-27T07:45:19.885Z,95957.13
2023-04-27T07:48:06.087Z,95959.41
2023-04-27T07:50:51.474Z,95957.06
2023-04-27T07:53:36.837Z,95955.88
2023-04-27T07:56:22.215Z,95948.06
2023-04-27T07:59:07.620Z,95939.47
2023-04-27T08:01:54.407Z,95948.59
2023-04-27T08:04:42.699Z,95953.91
2023-04-27T08:07:29.246Z,95939.91
2023-04-27T08:10:15.808Z,95944.97
2023-04-27T08:13:01.279Z,95939.78
2023-04-27T08:15:46.606Z,95935.03
2023-04-27T08:18:31.826Z,95948.00
2023-04-27T08:21:17.317Z,95941.97
2023-04-27T08:24:03.474Z,95937.91
2023-04-27T08:26:48.826Z,95941.44
2023-04-27T08:29:34.602Z,95947.06
2023-04-27T08:32:20.306Z,95938.63
2023-04-27T08:35:06.364Z,95950.41
2023-04-27T08:37:51.346Z,95939.66
2023-04-27T08:40:41.807Z,95948.41
2023-04-27T08:43:26.959Z,95955.41
2023-04-27T08:46:12.316Z,95952.38
2023-04-27T08:48:57.783Z,95963.31
2023-04-27T08:51:43.817Z,95967.22
2023-04-27T08:54:28.973Z,95978.13
2023-04-27T08:57:15.840Z,95972.59
2023-04-27T09:00:01.370Z,95985.97
2023-04-27T09:02:48.195Z,95980.25
2023-04-27T09:05:34.114Z,95991.13
2023-04-27T09:08:19.631Z,95980.06
2023-04-27T09:11:05.137Z,95986.72
2023-04-27T09:13:50.667Z,95985.16
2023-04-27T09:16:35.832Z,95983.34
2023-04-27T09:19:26.100Z,95984.63
2023-04-27T09:22:11.914Z,95980.34
2023-04-27T09:24:56.942Z,95982.19
2023-04-27T09:27:44.459Z,95977.72
2023-04-27T09:30:30.147Z,95969.16
2023-04-27T09:33:15.610Z,95963.81
2023-04-27T09:36:03.777Z,95960.03
2023-04-27T09:38:49.847Z,95956.28
2023-04-27T09:41:36.046Z,95954.16
2023-04-27T09:44:21.181Z,95946.91
2023-04-27T09:47:07.529Z,95942.94
2023-04-27T09:49:52.866Z,95942.47
2023-04-27T09:52:38.151Z,95935.84
2023-04-27T09:55:51.680Z,95942.38
2023-04-27T09:58:54.677Z,95944.81
2023-04-27T10:01:47.049Z,95951.28
2023-04-27T10:05:11.973Z,95949.16
2023-04-27T10:07:57.618Z,95953.16
2023-04-27T10:10:53.337Z,95955.59
2023-04-27T10:13:38.491Z,95953.22
2023-04-27T10:16:24.044Z,95948.78
2023-04-27T10:19:10.096Z,95943.06
2023-04-27T10:22:07.932Z,95943.13
2023-04-27T10:24:53.361Z,95941.31
2023-04-27T10:27:40.092Z,95944.81
2023-04-27T10:30:37.376Z,95923.22
2023-04-27T10:33:23.370Z,95940.59
2023-04-27T10:36:14.746Z,95922.31
2023-04-27T10:39:00.698Z,95928.66
2023-04-27T10:41:56.845Z,95932.19
2023-04-27T10:44:42.467Z,95931.38
2023-04-27T10:47:39.675Z,95922.47
2023-04-27T10:50:25.475Z,95928.16
2023-04-27T10:53:10.884Z,95918.81
2023-04-27T10:55:56.664Z,95924.28
2023-04-27T10:58:48.965Z,95921.00
2023-04-27T11:01:35.505Z,95930.94
2023-04-27T11:04:20.962Z,95929.13
2023-04-27T11:07:10.253Z,95928.16
2023-04-27T11:09:55.848Z,95922.94
2023-04-27T11:12:41.224Z,95930.66
2023-04-27T11:15:26.747Z,95923.56
2023-04-27T11:18:12.348Z,95928.75
2023-04-27T11:21:09.684Z,95921.31
2023-04-27T11:23:54.980Z,95921.16
2023-04-27T11:26:40.398Z,95910.06
2023-04-27T11:29:25.882Z,95904.00
2023-04-27T11:32:21.739Z,95910.97
2023-04-27T11:35:07.406Z,95912.00
2023-04-27T11:38:01.716Z,95915.41
2023-04-27T11:40:47.881Z,95919.91
2023-04-27T11:43:34.150Z,95912.63
2023-04-27T11:46:22.522Z,95913.81
2023-04-27T11:49:10.977Z,95917.88
2023-04-27T11:51:57.554Z,95918.88
2023-04-27T11:54:56.285Z,95921.31
2023-04-27T11:57:42.231Z,95922.34
2023-04-27T12:00:27.354Z,95919.69
2023-04-27T12:03:13.065Z,95929.56
2023-04-27T12:06:11.380Z,95924.28
2023-04-27T12:09:02.207Z,95930.31
2023-04-27T12:11:47.419Z,95933.50
2023-04-27T12:14:32.885Z,95935.13
2023-04-27T12:17:18.517Z,95932.28
2023-04-27T12:20:04.610Z,95938.63
2023-04-27T12:22:50.229Z,95942.91
2023-04-27T12:25:36.684Z,95937.25
2023-04-27T12:28:21.787Z,95942.69
2023-04-27T12:31:08.631Z,95949.78
2023-04-27T12:33:54.173Z,95939.66
2023-04-27T12:36:39.437Z,95939.69
2023-04-27T12:39:27.354Z,95943.38
2023-04-27T12:42:12.530Z,95941.94
2023-04-27T12:44:58.374Z,95939.94
2023-04-27T12:47:58.656Z,95937.72
2023-04-27T12:50:47.414Z,95949.09
2023-04-27T12:53:32.780Z,95946.28
2023-04-27T12:56:18.498Z,95951.56
2023-04-27T12:59:04.091Z,95950.34
2023-04-27T13:01:49.650Z,95957.59
2023-04-27T13:04:36.222Z,95944.81
2023-04-27T13:07:21.462Z,95949.38
2023-04-27T13:10:08.511Z,95953.56
2023-04-27T13:12:54.496Z,95958.41
2023-04-27T13:15:40.163Z,95960.25
2023-04-27T13:18:26.127Z,95945.00
2023-04-27T13:21:11.589Z,95948.25
2023-04-27T13:23:59.572Z,95940.81
2023-04-27T13:26:45.451Z,95936.59
2023-04-27T13:29:31.486Z,95937.25
2023-04-27T13:32:16.829Z,95932.59
2023-04-27T13:35:03.821Z,95938.31
2023-04-27T13:37:49.360Z,95937.09
2023-04-27T13:40:34.883Z,95938.53
2023-04-27T13:43:19.837Z,95936.91
2023-04-27T13:46:05.707Z,95940.38
2023-04-27T13:48:51.053Z,95934.66
2023-04-27T13:51:36.849Z,95935.50
2023-04-27T13:54:22.210Z,95953.59
2023-04-27T13:57:07.446Z,95952.97
2023-04-27T13:59:53.238Z,95965.16
2023-04-27T14:02:39.531Z,95958.97
2023-04-27T14:05:24.942Z,95965.84
2023-04-27T14:08:10.817Z,95964.97
2023-04-27T14:10:56.224Z,95968.66
2023-04-27T14:13:43.053Z,95974.34
2023-04-27T14:16:28.586Z,95974.69
2023-04-27T14:19:16.301Z,95975.06
2023-04-27T14:22:01.939Z,95986.22
2023-04-27T14:24:47.318Z,95983.22
2023-04-27T14:27:32.769Z,95982.81
2023-04-27T14:30:18.432Z,95981.44
2023-04-27T14:33:03.885Z,95969.06
2023-04-27T14:35:49.419Z,95979.22
2023-04-27T14:38:34.802Z,95977.41
2023-04-27T14:41:20.020Z,95973.56
2023-04-27T14:44:07.674Z,95970.94
2023-04-27T14:46:53.988Z,95970.94
2023-04-27T14:49:39.131Z,95969.50
2023-04-27T14:52:24.558Z,95973.59
2023-04-27T14:55:11.445Z,95969.94
2023-04-27T14:57:56.887Z,95977.28
2023-04-27T15:00:42.342Z,95970.59
2023-04-27T15:03:28.203Z,95974.47
2023-04-27T15:06:13.903Z,95974.69
2023-04-27T15:08:59.356Z,95973.69
2023-04-27T15:11:45.067Z,95975.53
2023-04-27T15:14:30.135Z,95983.06
2023-04-27T15:17:15.538Z,95985.69
2023-04-27T15:20:01.345Z,95985.69
2023-04-27T15:22:47.193Z,95988.31
2023-04-27T15:25:32.685Z,95986.66
2023-04-27T15:28:18.682Z,95990.75
2023-04-27T15:31:03.830Z,95996.59
2023-04-27T15:33:49.124Z,95994.75
2023-04-27T15:36:34.521Z,95997.81
2023-04-27T15:39:19.714Z,95993.16
2023-04-27T15:42:05.448Z,95995.41
2023-04-27T15:44:51.248Z,95993.16
2023-04-27T15:47:36.489Z,95991.72
2023-04-27T15:50:22.528Z,95999.22
2023-04-27T15:53:07.544Z,95992.31
2023-04-27T15:55:52.893Z,96005.09
2023-04-27T15:58:38.325Z,96011.97
2023-04-27T16:01:23.740Z,96002.81
2023-04-27T16:04:09.348Z,96004.66
2023-04-27T16:06:55.026Z,96006.06
2023-04-27T16:09:40.511Z,96010.47
2023-04-27T16:12:26.411Z,96012.97
2023-04-27T16:15:11.991Z,96011.88
2023-04-27T16:17:57.325Z,96024.06
2023-04-27T16:20:42.731Z,96021.38
2023-04-27T16:23:28.467Z,96016.50
2023-04-27T16:26:13.568Z,96015.88
2023-04-27T16:28:58.979Z,96018.31
2023-04-27T16:31:44.869Z,96016.91
2023-04-27T16:34:31.362Z,96024.22
2023-04-27T16:37:16.704Z,96025.44
2023-04-27T16:40:07.006Z,96028.25
2023-04-27T16:42:52.630Z,96022.97
2023-04-27T16:45:38.823Z,96023.03
2023-04-27T16:48:24.301Z,96028.16
2023-04-27T16:51:10.718Z,96024.94
2023-04-27T16:53:58.323Z,96023.69
2023-04-27T16:56:45.960Z,96024.88
2023-04-27T16:59:31.431Z,96030.78
2023-04-27T17:02:24.363Z,96043.44
2023-04-27T17:05:11.064Z,96039.91
2023-04-27T17:07:56.668Z,96043.38
2023-04-27T17:10:41.934Z,96045.78
2023-04-27T17:13:27.219Z,96043.97
2023-04-27T17:16:13.640Z,96048.22
2023-04-27T17:18:58.845Z,96055.56
2023-04-27T17:21:43.928Z,96053.19
2023-04-27T17:24:29.445Z,96056.88
2023-04-27T17:27:14.971Z,96056.47
2023-04-27T17:30:00.680Z,96051.19
2023-04-27T17:32:45.823Z,96058.13
2023-04-27T17:35:31.261Z,96062.59
2023-04-27T17:38:16.790Z,96058.88
2023-04-27T17:41:02.004Z,96061.72
2023-04-27T17:43:47.114Z,96065.59
2023-04-27T17:46:32.497Z,96059.69
2023-04-27T17:49:19.105Z,96066.13
2023-04-27T17:52:05.165Z,96069.34
2023-04-27T17:54:50.859Z,96065.28
2023-04-27T17:57:36.287Z,96062.41
2023-04-27T18:00:24.055Z,96072.53
2023-04-27T18:03:09.805Z,96066.00
2023-04-27T18:05:55.800Z,96073.03
2023-04-27T18:08:41.297Z,96080.53
2023-04-27T18:11:27.478Z,96077.66
2023-04-27T18:14:12.874Z,96079.22
2023-04-27T18:16:59.936Z,96086.09
2023-04-27T18:19:55.328Z,96089.66
2023-04-27T18:22:46.555Z,96088.16
2023-04-27T18:25:32.098Z,96087.91
2023-04-27T18:28:17.571Z,96090.94
2023-04-27T18:31:02.675Z,96096.78
2023-04-27T18:33:49.131Z,96097.50
2023-04-27T18:36:34.380Z,96104.38
2023-04-27T18:39:20.754Z,96110.50
2023-04-27T18:42:06.571Z,96114.06
2023-04-27T18:45:00.391Z,96118.47
2023-04-27T18:47:46.207Z,96119.81
2023-04-27T18:50:31.704Z,96126.09
2023-04-27T18:53:17.446Z,96124.13
2023-04-27T18:56:09.500Z,96125.09
2023-04-27T18:58:56.016Z,96119.38
2023-04-27T19:01:41.451Z,96121.22
2023-04-27T19:04:27.353Z,96129.84
2023-04-27T19:07:12.850Z,96123.97
2023-04-27T19:09:58.366Z,96135.94
2023-04-27T19:12:43.659Z,96132.66
2023-04-27T19:15:29.027Z,96134.28
2023-04-27T19:18:15.132Z,96135.94
2023-04-27T19:21:00.951Z,96133.84
2023-04-27T19:23:46.252Z,96137.66
2023-04-27T19:26:32.252Z,96136.19
2023-04-27T19:29:18.060Z,96139.84
2023-04-27T19:32:05.876Z,96144.28
2023-04-27T19:34:51.583Z,96143.00
2023-04-27T19:37:37.180Z,96141.09
2023-04-27T19:40:22.570Z,96143.47
2023-04-27T19:43:09.728Z,96151.56
2023-04-27T19:45:54.882Z,96152.72
2023-04-27T19:48:42.353Z,96145.53
2023-04-27T19:51:29.263Z,96140.53
2023-04-27T19:54:14.832Z,96139.63
2023-04-27T19:57:01.281Z,96145.13
2023-04-27T19:59:47.922Z,96138.94
2023-04-27T20:02:34.554Z,96142.47
2023-04-27T20:05:21.421Z,96144.03
2023-04-27T20:08:08.582Z,96136.81
2023-04-27T20:10:54.169Z,96144.69
2023-04-27T20:13:39.177Z,96145.97
2023-04-27T20:16:25.983Z,96139.63
2023-04-27T20:19:12.409Z,96147.91
2023-04-27T20:21:57.764Z,96151.91
2023-04-27T20:24:43.731Z,96148.81
2023-04-27T20:27:29.199Z,96144.63
2023-04-27T20:30:14.748Z,96152.03
2023-04-27T20:33:01.487Z,96159.31
2023-04-27T20:35:47.222Z,96157.34
2023-04-27T20:38:32.711Z,96159.69
2023-04-27T20:41:17.894Z,96158.25
2023-04-27T20:44:03.485Z,96156.81
2023-04-27T20:46:49.087Z,96159.44
2023-04-27T20:49:35.748Z,96165.84
2023-04-27T20:52:21.259Z,96167.31
2023-04-27T20:55:06.904Z,96173.72
2023-04-27T20:57:51.951Z,96178.53
2023-04-27T21:00:37.431Z,96174.91
2023-04-27T21:03:22.971Z,96176.06
2023-04-27T21:06:08.207Z,96172.28
2023-04-27T21:08:53.536Z,96179.03
2023-04-27T21:11:38.908Z,96177.38
2023-04-27T21:14:24.440Z,96180.84
2023-04-27T21:17:10.314Z,96180.69
2023-04-27T21:19:58.044Z,96182.84
2023-04-27T21:22:43.153Z,96182.66
2023-04-27T21:25:28.673Z,96173.47
2023-04-27T21:28:14.342Z,96178.22
2023-04-27T21:30:59.265Z,96171.03
2023-04-27T21:33:44.575Z,96177.91
2023-04-27T21:36:30.374Z,96180.34
2023-04-27T21:39:15.897Z,96177.06
2023-04-27T21:42:01.340Z,96183.66
2023-04-27T21:44:47.165Z,96179.03
2023-04-27T21:47:32.597Z,96179.22
2023-04-27T21:50:18.179Z,96179.88
2023-04-27T21:53:03.185Z,96179.72
2023-04-27T21:55:49.684Z,96187.56
2023-04-27T21:58:34.681Z,96189.03
2023-04-27T22:01:19.996Z,96190.38
2023-04-27T22:04:06.921Z,96188.38
2023-04-27T22:06:52.635Z,96191.34
2023-04-27T22:09:38.017Z,96189.03
2023-04-27T22:12:23.068Z,96195.91
2023-04-27T22:15:09.050Z,96202.44
2023-04-27T22:17:55.836Z,96207.69
2023-04-27T22:20:42.424Z,96202.31
2023-04-27T22:23:31.260Z,96207.06
2023-04-27T22:26:16.729Z,96218.22
2023-04-27T22:29:01.559Z,96207.56
2023-04-27T22:31:47.043Z,96215.22
2023-04-27T22:34:32.480Z,96213.25
2023-04-27T22:37:17.997Z,96211.13
2023-04-27T22:40:05.985Z,96207.66
2023-04-27T22:42:51.457Z,96205.66
2023-04-27T22:45:38.665Z,96213.84
2023-04-27T22:48:24.501Z,96205.81
2023-04-27T22:51:10.184Z,96203.69
2023-04-27T22:53:55.157Z,96219.06
2023-04-27T22:56:41.174Z,96221.34
2023-04-27T22:59:26.616Z,96214.78
2023-04-27T23:02:12.088Z,96199.06
2023-04-27T23:04:58.739Z,96220.03
2023-04-27T23:07:43.988Z,96225.09
2023-04-27T23:10:31.168Z,96216.28
2023-04-27T23:13:17.756Z,96203.19
2023-04-27T23:16:03.321Z,96211.88
2023-04-27T23:18:48.476Z,96203.50
2023-04-27T23:21:33.757Z,96205.63
2023-04-27T23:24:19.136Z,96209.69
2023-04-27T23:27:04.517Z,96204.88
2023-04-27T23:29:50.294Z,96203.66
2023-04-27T23:32:36.732Z,96211.69
2023-04-27T23:35:22.365Z,96210.41
2023-04-27T23:38:07.341Z,96197.63
2023-04-27T23:40:52.739Z,96195.31
2023-04-27T23:43:38.212Z,96198.25
2023-04-27T23:46:23.539Z,96192.16
2023-04-27T23:49:08.872Z,96192.69
2023-04-27T23:51:54.137Z,96196.97
2023-04-27T23:54:39.500Z,96189.25
2023-04-27T23:57:24.927Z,96203.97
